Terminal Aerodrome Forecast
Issued by NWS

Home | Current Version | Previous Version | Text Only | Print | Product List | Glossary On
Versions: 1 2 3 4 5 6 7 8 9 10 11 12 13 14 15 16 17 18 19 20
000
FTUS41 KCLE 050539
TAFFDY
TAF
KFDY 050539Z 0506/0606 VRB03KT P6SM FEW070 SCT250
     FM051400 35005KT P6SM SCT035
     FM060100 VRB03KT P6SM SCT100 BKN250=

USA.gov is the U.S. government's official web portal to all federal, state and local government web resources and services.